This is the latest recevied weather packets stored in our database for station/object F6JSP-13. If no packets are shown the sender has not sent any weather packets the latest 10 day(s).
| Time | Temp. | Humidity | Pressure | Rain* | Wind** | Luminosity | Snow |
|---|---|---|---|---|---|---|---|
| 1777861205 | 11.11° C | 96% | 1009.3 hPa | 0 mm | - | 0 W/m² | - |
| 1777859705 | 11.67° C | 95% | 1009.3 hPa | 0 mm | - | 0 W/m² | - |
| 1777857905 | 11.67° C | 93% | 1009.6 hPa | 0 mm | - | 0 W/m² | - |
| 1777857004 | 12.22° C | 93% | 1009.5 hPa | 0 mm | - | 0 W/m² | - |
| 1777853705 | 12.78° C | 91% | 1010 hPa | 0 mm | - | 0 W/m² | - |
| 1777852505 | 12.78° C | 91% | 1009.7 hPa | 0 mm | - | 0 W/m² | - |
| 1777851305 | 13.33° C | 89% | 1009.6 hPa | 0 mm | - | 0 W/m² | - |
| 1777850405 | 13.33° C | 88% | 1009.7 hPa | 0 mm | - | 0 W/m² | - |
| 1777849504 | 13.89° C | 87% | 1009.8 hPa | 0 mm | - | 0 W/m² | - |
| 1777848904 | 13.89° C | 87% | 1009.7 hPa | 0 mm | - | 0 W/m² | - |
| 1777847404 | 14.44° C | 86% | 1010 hPa | 0 mm | - | 0 W/m² | - |
| 1777845605 | 14.44° C | 88% | 1009.8 hPa | 0 mm | - | 0 W/m² | - |
| 1777845305 | 14.44° C | 88% | 1009.9 hPa | 0 mm | - | 0 W/m² | - |
| 1777843804 | 14.44° C | 88% | 1009.8 hPa | 0 mm | - | 0 W/m² | - |
| 1777838706 | 15° C | 87% | 1009.1 hPa | 0 mm | - | 0 W/m² | - |
| 1777836305 | 16.67° C | 78% | 1008.6 hPa | 0 mm | - | 0 W/m² | - |
| 1777836006 | 16.67° C | 77% | 1008.4 hPa | 0 mm | - | 0 W/m² | - |
| 1777835706 | 17.22° C | 76% | 1008.5 hPa | 0 mm | - | 1 W/m² | - |
| 1777834805 | 18.33° C | 72% | 1008.3 hPa | 0 mm | - | 9 W/m² | - |
| 1777834207 | 18.89° C | 70% | 1008.2 hPa | 0 mm | - | 16 W/m² | - |
| 1777833306 | 18.33° C | 72% | 1008.4 hPa | 0 mm | - | 28 W/m² | - |
| 1777831506 | 20° C | 73% | 1008 hPa | 0 mm | - | 100 W/m² | - |
| 1777831205 | 19.44° C | 74% | 1007.8 hPa | 0 mm | - | 117 W/m² | - |
| 1777829105 | 17.78° C | 79% | 1007.8 hPa | 0 mm | - | 92 W/m² | - |
| 1777827906 | 17.78° C | 79% | 1008 hPa | 0 mm | - | 81 W/m² | - |
* Rain latest hour (hover to see other rain measurements)
** Current wind speed in m/s (hover to see current wind gust speed)